»·PEaware :: N8665R L05-O26

N8665R :: L05-O26

FLIGHT INFORMATION

Flight Status: Arrived
Operator: Privately registered:
United States
More flights under this callsign
Pilot: Anonymous 16594 (16594)
Aircraft: PIPER PA-24 COMMANCHE
(PA24)
More flights by this aircraft type
Origin: L05 Kern Valley
United States
Destination: O26 Lone Pine
United States
More flights between these airports :: More routes between these airports
Route:
File this flight plan on PilotEdge
Remarks:
Altitude:
(Current/Filed)
5,500ft
Speed:
(Current/Filed)
130kts
Departed: 01-Oct-17 01:23 PM
Arrived: 01-Oct-17 01:58 PM
Distance/Time
Traveled:
55nm/0:35
Distance/Time
To Go:
Arrived

Flight Plot

Page will automatically refresh every two minutes.

Flight plan parsing failed; only flown route is shown


Map Options




Map Legend


Flown Route
Filed Route
Departure Airport
Arrival Airport
Navaid (VOR, NDB)
Fix

Horizontal Profiles

Position Reports

Time Latitude Longitude Heading Altitude Ground
Speed
01-Oct-17 13:21 35.722616 -118.418571 324 2617ft 5kts
01-Oct-17 13:22 35.726008 -118.419030 348 2617ft 16kts
01-Oct-17 13:23 35.727144 -118.419906 183 2617ft 11kts
01-Oct-17 13:24 35.723615 -118.420350 27 2617ft 0kts
01-Oct-17 13:25 35.723620 -118.420347 27 2617ft 0kts
01-Oct-17 13:26 35.724535 -118.420240 4 2617ft 38kts
01-Oct-17 13:27 35.745020 -118.420434 348 2985ft 112kts
01-Oct-17 13:28 35.772312 -118.431134 329 3754ft 113kts
01-Oct-17 13:29 35.808349 -118.449686 325 4289ft 122kts
01-Oct-17 13:30 35.834699 -118.456596 0 4414ft 130kts
01-Oct-17 13:31 35.870047 -118.454733 345 4457ft 121kts
01-Oct-17 13:32 35.898963 -118.474277 291 4347ft 129kts
01-Oct-17 13:33 35.927582 -118.495197 24 4510ft 130kts
01-Oct-17 13:34 35.961273 -118.479932 15 4403ft 122kts
01-Oct-17 13:35 35.983377 -118.467607 338 4931ft 97kts
01-Oct-17 13:36 36.008461 -118.476826 357 5744ft 107kts
01-Oct-17 13:37 36.041223 -118.471043 8 7137ft 123kts
01-Oct-17 13:38 36.070576 -118.447975 38 8179ft 130kts
01-Oct-17 13:39 36.092563 -118.416155 79 8702ft 129kts
01-Oct-17 13:40 36.095476 -118.371457 106 9090ft 133kts
01-Oct-17 13:41 36.086555 -118.326020 90 9438ft 129kts
01-Oct-17 13:42 36.100514 -118.282440 58 10191ft 134kts
01-Oct-17 13:43 36.119922 -118.242136 61 10228ft 137kts
01-Oct-17 13:44 36.139590 -118.200416 59 10173ft 131kts
01-Oct-17 13:45 36.151203 -118.155673 91 11038ft 154kts
01-Oct-17 13:46 36.143652 -118.104308 102 11038ft 145kts
01-Oct-17 13:47 36.139246 -118.054175 82 9146ft 144kts
01-Oct-17 13:48 36.154722 -118.010511 66 7568ft 135kts
01-Oct-17 13:49 36.184186 -117.982735 355 7528ft 141kts
01-Oct-17 13:50 36.219937 -117.993033 358 7648ft 125kts
01-Oct-17 13:51 36.255840 -117.996724 348 7606ft 142kts
01-Oct-17 13:52 36.301823 -118.003548 354 7258ft 169kts
01-Oct-17 13:53 36.345408 -118.010766 352 6163ft 149kts
01-Oct-17 13:54 36.387059 -118.017859 352 6099ft 144kts
01-Oct-17 13:55 36.424509 -118.025091 339 6072ft 124kts
01-Oct-17 13:56 36.461840 -118.028474 358 6102ft 137kts
01-Oct-17 13:57 36.498829 -118.035313 327 6406ft 126kts
01-Oct-17 13:58 36.534410 -118.041022 38 5516ft 135kts
01-Oct-17 13:59 36.525226 -118.024656 238 4719ft 94kts
01-Oct-17 14:00 36.542529 -118.042672 353 4053ft 94kts
01-Oct-17 14:01 36.568894 -118.045901 354 3847ft 92kts
01-Oct-17 14:02 36.586869 -118.047883 354 3683ft 23kts
01-Oct-17 14:03 36.588405 -118.048714 265 3683ft 2kts
01-Oct-17 14:04 36.588026 -118.053850 263 3683ft 11kts
01-Oct-17 14:05 36.588123 -118.055659 348 3683ft 0kts
01-Oct-17 14:06 36.588123 -118.055659 348 3683ft 0kts
01-Oct-17 14:07 36.588123 -118.055659 348 3683ft 0kts
01-Oct-17 14:08 36.588123 -118.055659 348 3683ft 0kts
01-Oct-17 14:09 36.588123 -118.055659 348 3683ft 0kts
01-Oct-17 14:10 36.588123 -118.055659 348 3683ft 0kts
01-Oct-17 14:11 36.588123 -118.055659 348 3683ft 0kts
01-Oct-17 14:12 36.588123 -118.055659 348 3683ft 0kts
01-Oct-17 14:13 36.588123 -118.055659 348 3683ft 0kts
01-Oct-17 14:14 36.588123 -118.055659 348 3683ft 0kts
01-Oct-17 14:15 36.588123 -118.055659 348 3683ft 0kts
01-Oct-17 14:16 36.588123 -118.055659 348 3683ft 0kts

Navigation Log

Ident Type
Flight plan parsing failed, navigation log unavailable